Time;durP1;ratioP1;P1;durP2;ratioP2;P2;SDS_P1;SDS_P2;PMS_P1;PMS_P2;Temp;Humidity;BMP_temperature;BMP_pressure;BME280_temperature;BME280_humidity;BME280_pressure;Samples;Min_cycle;Max_cycle;Signal;HPM_P1;HPM_P2
2023/03/03 00:00:06;;;;;;;5.00;4.50;;;;;;;4.90;100.00;94936.78;5054760;28;20441;-72
2023/03/03 00:02:33;;;;;;;5.00;4.50;;;;;;;4.84;100.00;94934.56;5054749;28;20492;-71
2023/03/03 00:04:59;;;;;;;6.73;5.37;;;;;;;4.77;100.00;94935.88;5054327;28;20452;-72
2023/03/03 00:07:26;;;;;;;5.37;4.87;;;;;;;4.79;100.00;94935.78;5054486;28;20959;-71
2023/03/03 00:09:54;;;;;;;6.50;5.80;;;;;;;4.72;100.00;94930.16;5053942;28;20848;-72
2023/03/03 00:12:24;;;;;;;8.97;6.87;;;;;;;4.84;100.00;94929.38;5054247;28;20445;-71
2023/03/03 00:14:51;;;;;;;6.93;6.23;;;;;;;4.94;100.00;94930.50;5035434;28;20441;-70
2023/03/03 00:17:22;;;;;;;7.47;6.00;;;;;;;4.91;100.00;94930.66;5054319;28;20448;-73
2023/03/03 00:19:49;;;;;;;8.57;6.23;;;;;;;4.84;100.00;94921.56;5054206;28;20445;-72
2023/03/03 00:22:27;;;;;;;8.63;6.00;;;;;;;4.76;100.00;94926.41;5054136;28;20488;-72
2023/03/03 00:24:55;;;;;;;7.03;5.97;;;;;;;4.70;100.00;94925.97;5035427;28;20449;-71
2023/03/03 00:27:29;;;;;;;7.23;6.37;;;;;;;4.65;100.00;94921.06;5053062;28;20468;-73
2023/03/03 00:29:57;;;;;;;8.83;6.80;;;;;;;4.78;100.00;94926.31;5054017;28;20448;-72
2023/03/03 00:32:27;;;;;;;10.10;5.90;;;;;;;4.89;100.00;94932.53;5053904;28;20445;-72
2023/03/03 00:34:56;;;;;;;6.90;6.20;;;;;;;5.01;100.00;94920.53;5053989;28;20480;-71
2023/03/03 00:37:32;;;;;;;9.53;7.70;;;;;;;5.10;100.00;94919.13;5053988;28;20475;-72
2023/03/03 00:40:20;;;;;;;6.90;6.20;;;;;;;5.22;100.00;94913.16;5053914;28;20437;-72
2023/03/03 00:42:51;;;;;;;5.80;5.07;;;;;;;5.25;100.00;94907.75;5053864;28;20512;-72
2023/03/03 00:45:27;;;;;;;6.80;5.63;;;;;;;5.37;100.00;94908.72;5053846;28;20512;-72
2023/03/03 00:47:54;;;;;;;9.50;6.00;;;;;;;5.42;100.00;94904.88;5053706;28;20532;-72
2023/03/03 00:50:30;;;;;;;7.13;6.10;;;;;;;5.44;100.00;94900.41;5053859;28;20441;-73
2023/03/03 00:53:07;;;;;;;6.37;5.50;;;;;;;5.37;100.00;94896.56;5053691;28;20449;-71
2023/03/03 00:55:35;;;;;;;8.17;5.83;;;;;;;5.51;100.00;94899.13;5053600;28;20953;-72
2023/03/03 00:58:03;;;;;;;6.43;5.80;;;;;;;5.44;100.00;94886.56;5053514;28;20995;-72
2023/03/03 01:00:30;;;;;;;6.60;6.00;;;;;;;5.38;100.00;94885.22;5053555;28;20445;-72
2023/03/03 01:02:57;;;;;;;6.27;5.67;;;;;;;5.48;100.00;94883.66;5053482;28;20838;-72
2023/03/03 01:05:24;;;;;;;4.77;4.33;;;;;;;5.43;100.00;94880.53;5053345;28;20441;-72
2023/03/03 01:07:50;;;;;;;7.50;5.50;;;;;;;5.46;100.00;94880.34;5053375;28;20449;-72
2023/03/03 01:10:17;;;;;;;5.83;5.23;;;;;;;5.60;100.00;94876.84;5053586;28;20499;-72
2023/03/03 01:12:46;;;;;;;6.37;5.63;;;;;;;5.62;100.00;94876.75;5053536;28;20445;-72
2023/03/03 01:15:14;;;;;;;7.23;6.00;;;;;;;5.52;100.00;94879.97;5053188;28;20495;-72
2023/03/03 01:17:41;;;;;;;6.50;5.90;;;;;;;5.52;100.00;94866.94;5053196;28;20856;-71
2023/03/03 01:20:12;;;;;;;10.23;6.93;;;;;;;5.60;100.00;94876.84;5053031;28;20479;-72
2023/03/03 01:22:39;;;;;;;7.60;6.77;;;;;;;5.64;100.00;94874.88;5053152;28;20481;-72
2023/03/03 01:25:06;;;;;;;8.27;5.73;;;;;;;5.35;100.00;94869.81;5018147;28;20452;-72
2023/03/03 01:27:34;;;;;;;7.40;6.10;;;;;;;5.38;100.00;94867.00;5034018;28;20445;-72
2023/03/03 01:30:03;;;;;;;9.63;6.43;;;;;;;5.50;100.00;94861.00;5052232;28;20495;-71
2023/03/03 01:32:30;;;;;;;7.57;6.17;;;;;;;5.48;100.00;94865.47;5052361;28;20510;-73
2023/03/03 01:34:57;;;;;;;12.30;8.80;;;;;;;5.34;100.00;94855.13;5052493;28;20488;-71
2023/03/03 01:37:24;;;;;;;13.33;7.03;;;;;;;5.34;100.00;94847.31;5017004;28;20500;-72
2023/03/03 01:39:51;;;;;;;6.40;5.73;;;;;;;5.30;100.00;94853.66;5052415;28;20445;-71
2023/03/03 01:42:18;;;;;;;7.17;5.47;;;;;;;5.19;100.00;94849.13;5051902;28;20848;-71
2023/03/03 01:44:45;;;;;;;8.00;6.20;;;;;;;5.12;100.00;94847.03;5052172;28;20565;-73
2023/03/03 01:47:16;;;;;;;7.23;5.90;;;;;;;5.06;100.00;94850.03;5052110;28;20510;-73
2023/03/03 01:49:49;;;;;;;7.23;5.30;;;;;;;4.83;100.00;94854.91;5052007;28;20847;-72
2023/03/03 01:52:26;;;;;;;7.80;5.73;;;;;;;4.78;100.00;94841.38;5052235;28;20514;-71
2023/03/03 01:54:56;;;;;;;8.70;5.87;;;;;;;4.72;100.00;94839.19;5052013;28;20472;-72
2023/03/03 01:57:28;;;;;;;8.00;6.90;;;;;;;4.76;100.00;94838.03;5051892;28;20453;-71
2023/03/03 01:59:57;;;;;;;17.83;11.83;;;;;;;4.87;100.00;94843.38;5051949;28;20450;-72
2023/03/03 02:02:26;;;;;;;10.97;7.07;;;;;;;4.91;100.00;94839.66;5051991;28;20499;-71
2023/03/03 02:04:54;;;;;;;9.50;6.40;;;;;;;4.88;100.00;94834.66;5052486;28;20449;-71
2023/03/03 02:07:23;;;;;;;7.30;6.20;;;;;;;4.91;100.00;94841.44;5051724;28;20445;-73
2023/03/03 02:09:55;;;;;;;6.33;5.03;;;;;;;4.84;100.00;94841.00;5052050;28;20504;-72
2023/03/03 02:12:28;;;;;;;6.30;5.60;;;;;;;4.98;100.00;94848.75;5052082;28;20449;-72
2023/03/03 02:14:55;;;;;;;6.93;5.07;;;;;;;4.95;100.00;94843.75;5052310;28;20453;-72
2023/03/03 02:17:22;;;;;;;13.23;7.50;;;;;;;4.80;100.00;94843.88;5052144;28;20441;-73
2023/03/03 02:19:56;;;;;;;7.00;6.30;;;;;;;4.69;100.00;94846.34;5017342;28;20510;-72
2023/03/03 02:22:33;;;;;;;8.83;6.57;;;;;;;4.77;100.00;94844.91;5052839;28;20833;-71
2023/03/03 02:25:03;;;;;;;10.10;7.67;;;;;;;4.80;100.00;94838.69;5052147;28;20440;-71
2023/03/03 02:27:32;;;;;;;7.77;7.00;;;;;;;4.68;100.00;94850.69;5052119;28;20449;-71
2023/03/03 02:30:08;;;;;;;8.87;6.97;;;;;;;4.66;100.00;94849.97;5052578;28;20556;-71
2023/03/03 02:32:35;;;;;;;9.27;7.23;;;;;;;4.72;100.00;94848.72;5052355;28;20511;-72
2023/03/03 02:35:22;;;;;;;8.90;7.00;;;;;;;4.70;100.00;94848.84;5052464;28;20485;-72
2023/03/03 02:37:50;;;;;;;9.40;6.77;;;;;;;4.69;100.00;94847.16;5051905;28;20900;-72
2023/03/03 02:40:19;;;;;;;11.23;6.97;;;;;;;4.65;100.00;94843.09;5052241;28;20536;-71
2023/03/03 02:42:51;;;;;;;10.73;8.17;;;;;;;4.65;100.00;94845.69;5052099;28;20445;-71
2023/03/03 02:45:18;;;;;;;11.90;6.93;;;;;;;4.65;100.00;94838.72;5052250;28;20449;-71
2023/03/03 02:47:49;;;;;;;9.43;7.50;;;;;;;4.74;100.00;94847.72;5051800;28;20499;-72
2023/03/03 02:50:16;;;;;;;9.10;8.00;;;;;;;4.76;100.00;94847.59;5053204;28;20449;-73
2023/03/03 02:52:43;;;;;;;13.23;8.03;;;;;;;4.92;100.00;94843.97;5055876;28;20441;-72
2023/03/03 02:55:10;;;;;;;14.10;9.07;;;;;;;5.04;100.00;94846.69;5055921;28;20940;-72
2023/03/03 02:57:37;;;;;;;13.00;8.70;;;;;;;5.15;100.00;94845.06;5055890;28;20859;-72
2023/03/03 03:00:06;;;;;;;10.50;7.40;;;;;;;4.96;100.00;94848.03;5020831;28;20445;-71
2023/03/03 03:02:33;;;;;;;11.50;8.93;;;;;;;4.93;100.00;94842.19;4988130;28;20457;-73
2023/03/03 03:05:00;;;;;;;9.93;7.77;;;;;;;4.81;100.00;94835.16;5055749;28;20558;-72
2023/03/03 03:07:27;;;;;;;9.97;8.20;;;;;;;4.67;100.00;94833.44;5036900;28;20453;-72
2023/03/03 03:09:54;;;;;;;11.03;8.43;;;;;;;4.58;100.00;94831.38;5055659;28;20502;-72
2023/03/03 03:12:21;;;;;;;13.63;8.60;;;;;;;4.79;100.00;94832.66;5020868;28;20519;-72
2023/03/03 03:14:48;;;;;;;9.20;7.47;;;;;;;4.80;100.00;94836.09;5055396;28;20441;-71
2023/03/03 03:17:16;;;;;;;10.93;7.70;;;;;;;4.76;100.00;94839.81;5055568;28;20889;-72
2023/03/03 03:19:43;;;;;;;8.50;7.40;;;;;;;4.58;100.00;94829.63;5055563;28;20499;-72
2023/03/03 03:22:09;;;;;;;12.77;7.97;;;;;;;4.73;100.00;94835.66;5055707;28;20448;-72
2023/03/03 03:24:36;;;;;;;11.40;9.60;;;;;;;4.64;100.00;94833.63;5055323;28;20496;-72
2023/03/03 03:27:03;;;;;;;13.13;8.83;;;;;;;4.65;100.00;94830.09;5055265;28;20506;-72
2023/03/03 03:29:30;;;;;;;13.10;8.47;;;;;;;4.69;100.00;94831.56;5036305;28;20437;-72
2023/03/03 03:31:57;;;;;;;12.47;9.33;;;;;;;4.61;100.00;94823.41;5055150;28;20448;-72
2023/03/03 03:34:25;;;;;;;13.67;10.33;;;;;;;4.64;100.00;94838.81;5019833;28;20453;-71
2023/03/03 03:36:51;;;;;;;15.30;10.17;;;;;;;4.61;100.00;94823.41;5055193;28;20511;-73
2023/03/03 03:39:18;;;;;;;12.30;10.13;;;;;;;4.65;100.00;94824.91;5055071;28;20924;-72
2023/03/03 03:41:45;;;;;;;12.77;10.30;;;;;;;4.52;100.00;94829.19;5054400;28;20832;-72
2023/03/03 03:44:12;;;;;;;13.67;9.30;;;;;;;4.42;100.00;94817.69;5054430;28;20489;-72
2023/03/03 03:46:38;;;;;;;15.07;10.70;;;;;;;4.37;100.00;94819.75;5054254;28;20453;-70
2023/03/03 03:49:05;;;;;;;13.97;10.30;;;;;;;4.35;100.00;94817.25;5054609;28;20507;-72
2023/03/03 03:51:37;;;;;;;18.43;11.37;;;;;;;4.38;100.00;94816.22;5019079;28;20437;-73
2023/03/03 03:54:03;;;;;;;14.93;10.33;;;;;;;4.15;100.00;94808.06;5054284;28;20453;-72
2023/03/03 03:56:30;;;;;;;13.33;10.20;;;;;;;4.33;100.00;94816.47;5054191;28;20503;-71
2023/03/03 03:58:57;;;;;;;15.77;12.67;;;;;;;4.37;100.00;94810.19;5018920;28;20491;-70
2023/03/03 04:01:24;;;;;;;21.00;10.57;;;;;;;4.36;100.00;94811.13;5054225;28;20433;-72
2023/03/03 04:03:51;;;;;;;19.00;11.37;;;;;;;4.17;100.00;94813.19;5053723;28;20477;-73
2023/03/03 04:06:17;;;;;;;20.43;13.70;;;;;;;4.20;100.00;94805.19;5053857;28;20441;-72
2023/03/03 04:08:45;;;;;;;17.37;13.00;;;;;;;4.26;100.00;94802.22;5054164;28;20449;-73
2023/03/03 04:11:12;;;;;;;19.10;11.87;;;;;;;4.26;100.00;94807.41;5054000;28;20449;-72
2023/03/03 04:13:39;;;;;;;15.90;11.30;;;;;;;4.33;100.00;94806.09;5053937;28;20986;-73
2023/03/03 04:16:06;;;;;;;16.70;11.10;;;;;;;4.40;100.00;94809.16;5054314;28;20449;-72
2023/03/03 04:18:33;;;;;;;17.53;11.40;;;;;;;4.37;100.00;94814.56;5053944;28;20445;-72
2023/03/03 04:21:00;;;;;;;18.27;11.63;;;;;;;4.40;100.00;94809.16;5053963;28;20449;-73
2023/03/03 04:23:26;;;;;;;16.50;11.33;;;;;;;4.43;100.00;94806.38;5054053;28;20558;-72
2023/03/03 04:25:54;;;;;;;20.47;13.67;;;;;;;4.54;100.00;94803.94;5054197;28;20457;-73
2023/03/03 04:28:23;;;;;;;18.30;12.07;;;;;;;4.76;100.00;94806.84;5054253;28;20445;-73
2023/03/03 04:30:50;;;;;;;20.20;15.23;;;;;;;4.86;100.00;94805.31;5053946;28;20491;-70
2023/03/03 04:33:17;;;;;;;24.37;13.17;;;;;;;5.03;100.00;94814.66;5053981;28;20840;-72
2023/03/03 04:35:44;;;;;;;19.13;11.17;;;;;;;5.19;100.00;94804.09;5053868;28;20856;-72
2023/03/03 04:38:11;;;;;;;15.20;9.60;;;;;;;5.20;100.00;94803.16;5054007;28;20507;-73
2023/03/03 04:40:39;;;;;;;19.87;11.50;;;;;;;5.31;100.00;94802.47;5054076;28;20908;-72
2023/03/03 04:43:08;;;;;;;23.00;12.30;;;;;;;5.37;100.00;94807.25;5054080;28;20456;-73
2023/03/03 04:45:34;;;;;;;16.20;11.70;;;;;;;5.36;100.00;94803.81;5035052;28;20489;-72
2023/03/03 04:48:01;;;;;;;14.83;10.93;;;;;;;5.46;100.00;94804.88;5035124;28;20449;-72
2023/03/03 04:50:28;;;;;;;16.10;11.20;;;;;;;5.54;100.00;94800.00;5053855;28;20444;-73
2023/03/03 04:52:55;;;;;;;13.63;9.77;;;;;;;5.51;100.00;94802.00;5053597;28;20449;-72
2023/03/03 04:55:22;;;;;;;14.13;10.97;;;;;;;5.60;100.00;94810.00;5018534;28;20468;-72
2023/03/03 04:57:48;;;;;;;21.97;13.83;;;;;;;5.62;100.00;94811.69;5053627;28;20537;-72
2023/03/03 05:00:17;;;;;;;16.70;12.07;;;;;;;5.61;100.00;94816.06;5053606;28;20453;-73
2023/03/03 05:02:44;;;;;;;16.67;11.57;;;;;;;5.68;100.00;94817.31;5053368;28;20511;-72
2023/03/03 05:05:12;;;;;;;18.10;11.33;;;;;;;5.77;100.00;94815.84;5053231;28;20485;-73
2023/03/03 05:07:39;;;;;;;16.63;11.10;;;;;;;5.80;100.00;94820.88;5034744;28;20529;-72
2023/03/03 05:10:07;;;;;;;15.33;9.37;;;;;;;5.83;100.00;94818.88;5053367;28;20449;-73
2023/03/03 05:12:34;;;;;;;15.23;10.07;;;;;;;5.74;100.00;94810.84;5052799;28;20449;-74
2023/03/03 05:15:01;;;;;;;25.90;10.77;;;;;;;5.55;100.00;94817.31;5053256;28;20499;-73
2023/03/03 05:17:29;;;;;;;13.60;10.60;;;;;;;5.59;100.00;94818.75;5053398;28;20458;-73
2023/03/03 05:19:56;;;;;;;17.67;11.60;;;;;;;5.50;100.00;94819.38;5053071;28;20847;-73
2023/03/03 05:22:23;;;;;;;16.13;11.53;;;;;;;5.48;100.00;94818.63;5053315;28;20484;-74
2023/03/03 05:24:50;;;;;;;14.50;10.30;;;;;;;5.47;100.00;94818.72;5053129;28;20485;-73
2023/03/03 05:27:17;;;;;;;14.43;9.50;;;;;;;5.41;100.00;94826.94;5053317;28;20930;-74
2023/03/03 05:29:44;;;;;;;17.20;11.37;;;;;;;5.38;100.00;94821.94;5052826;28;20528;-73
2023/03/03 05:32:11;;;;;;;18.60;12.73;;;;;;;5.44;100.00;94817.16;5052896;28;20888;-73
2023/03/03 05:34:39;;;;;;;14.90;10.90;;;;;;;5.33;100.00;94824.00;5052893;28;20552;-73
2023/03/03 05:37:06;;;;;;;16.40;12.07;;;;;;;5.43;100.00;94818.09;5053330;28;20452;-73
2023/03/03 05:39:33;;;;;;;19.27;13.23;;;;;;;5.41;100.00;94825.16;5052851;28;20483;-72
2023/03/03 05:42:00;;;;;;;19.90;13.07;;;;;;;5.41;100.00;94819.97;5053103;28;20448;-73
2023/03/03 05:44:27;;;;;;;23.63;12.47;;;;;;;5.41;100.00;94825.16;5052581;28;20486;-72
2023/03/03 05:46:55;;;;;;;16.27;12.33;;;;;;;5.38;100.00;94825.38;5033810;28;20511;-75
2023/03/03 05:49:22;;;;;;;22.83;11.80;;;;;;;5.29;100.00;94829.41;5033097;28;20536;-73
2023/03/03 05:51:50;;;;;;;25.77;14.50;;;;;;;5.41;100.00;94832.13;5015201;28;20502;-73
2023/03/03 05:54:17;;;;;;;21.33;14.47;;;;;;;5.51;100.00;94830.63;5052619;28;20520;-73
2023/03/03 05:56:43;;;;;;;21.03;13.93;;;;;;;5.48;100.00;94828.19;5052330;28;20450;-71
2023/03/03 05:59:10;;;;;;;21.00;14.47;;;;;;;5.35;100.00;94825.56;5052072;28;20449;-73
2023/03/03 06:01:37;;;;;;;18.70;13.87;;;;;;;5.45;100.00;94825.78;5051603;28;20936;-74
2023/03/03 06:04:04;;;;;;;18.10;13.00;;;;;;;5.57;100.00;94825.84;5052404;28;20490;-72
2023/03/03 06:06:30;;;;;;;19.87;14.50;;;;;;;5.52;100.00;94825.31;5052552;28;20448;-72
2023/03/03 06:08:59;;;;;;;18.13;13.17;;;;;;;5.75;100.00;94834.16;5052150;28;20928;-72
2023/03/03 06:11:25;;;;;;;23.17;13.97;;;;;;;5.71;100.00;94832.72;5052193;28;20457;-74
2023/03/03 06:13:52;;;;;;;19.23;14.17;;;;;;;5.76;100.00;94829.78;5033422;28;20862;-73
2023/03/03 06:16:19;;;;;;;19.53;13.87;;;;;;;5.82;100.00;94837.22;5050125;28;20500;-73
2023/03/03 06:18:46;;;;;;;17.67;13.73;;;;;;;5.83;100.00;94838.88;5052351;28;20445;-72
2023/03/03 06:21:13;;;;;;;20.47;14.27;;;;;;;5.94;100.00;94841.63;5052338;28;20449;-73
2023/03/03 06:23:39;;;;;;;23.40;14.10;;;;;;;5.92;100.00;94845.28;5052106;28;20452;-73
2023/03/03 06:26:07;;;;;;;29.63;15.50;;;;;;;5.92;100.00;94845.28;5056527;28;20485;-71
2023/03/03 06:28:34;;;;;;;21.40;13.20;;;;;;;5.89;100.00;94841.94;5056073;28;20808;-73
2023/03/03 06:31:01;;;;;;;16.73;12.07;;;;;;;6.04;100.00;94842.66;5056191;28;21009;-73
2023/03/03 06:33:28;;;;;;;17.87;12.63;;;;;;;6.01;100.00;94842.88;5053322;28;20469;-74
2023/03/03 06:35:55;;;;;;;20.03;12.47;;;;;;;5.95;100.00;94843.28;5055975;28;20821;-73
2023/03/03 06:38:22;;;;;;;19.30;12.70;;;;;;;5.86;100.00;94843.88;5053846;28;20467;-73
2023/03/03 06:40:49;;;;;;;16.50;12.23;;;;;;;6.03;100.00;94848.81;5056062;28;20844;-73
2023/03/03 06:43:17;;;;;;;17.60;13.60;;;;;;;6.14;100.00;94848.94;5055833;28;20442;-73
2023/03/03 06:45:45;;;;;;;24.10;11.60;;;;;;;6.04;100.00;94845.25;5055733;28;20512;-73
2023/03/03 06:48:12;;;;;;;16.25;11.90;;;;;;;6.10;100.00;94844.88;5055849;28;20548;-74
2023/03/03 06:50:39;;;;;;;18.90;12.43;;;;;;;6.22;100.00;94830.16;5055822;28;20208;-73
2023/03/03 06:53:12;;;;;;;19.20;12.77;;;;;;;6.33;100.00;94839.84;5055744;28;20476;-76
2023/03/03 06:55:39;;;;;;;18.27;11.40;;;;;;;6.45;100.00;94846.81;5055723;28;20788;-73
2023/03/03 06:58:12;;;;;;;18.13;12.53;;;;;;;6.53;100.00;94847.13;5055739;28;20904;-74
2023/03/03 07:00:42;;;;;;;19.10;13.80;;;;;;;6.57;100.00;94843.34;5055744;28;20529;-73
2023/03/03 07:03:15;;;;;;;18.47;11.97;;;;;;;6.35;100.00;94837.94;5055757;28;20480;-73
2023/03/03 07:05:42;;;;;;;19.37;11.40;;;;;;;6.51;100.00;94849.00;5055350;28;20543;-73
2023/03/03 07:08:14;;;;;;;14.80;11.50;;;;;;;6.54;100.00;94846.19;5055498;28;20450;-71
2023/03/03 07:10:41;;;;;;;14.60;11.07;;;;;;;6.50;100.00;94853.38;5055661;28;20465;-73
2023/03/03 07:13:18;;;;;;;13.53;10.97;;;;;;;6.63;100.00;94849.91;5036520;28;20457;-74
2023/03/03 07:15:48;;;;;;;14.80;11.13;;;;;;;6.47;100.00;94853.59;5055372;28;20449;-73
2023/03/03 07:18:37;;;;;;;18.03;11.10;;;;;;;6.41;100.00;94855.78;5055039;28;20445;-74
2023/03/03 07:21:16;;;;;;;16.70;10.50;;;;;;;6.37;100.00;94849.13;5055261;28;20924;-73
2023/03/03 07:23:44;;;;;;;12.87;10.43;;;;;;;6.49;100.00;94848.28;5037033;28;20446;-73
2023/03/03 07:26:13;;;;;;;15.93;10.70;;;;;;;6.57;100.00;94838.13;5055027;28;20484;-74
2023/03/03 07:28:42;;;;;;;12.90;10.20;;;;;;;6.68;100.00;94838.22;5054835;28;20449;-73
2023/03/03 07:31:27;;;;;;;15.60;9.20;;;;;;;6.80;100.00;94837.34;5055293;28;20446;-75
2023/03/03 07:33:55;;;;;;;12.50;9.40;;;;;;;6.92;100.00;94847.84;5055380;28;20477;-74
2023/03/03 07:36:28;;;;;;;11.77;9.13;;;;;;;6.92;100.00;94843.47;5054661;28;20458;-74
2023/03/03 07:38:57;;;;;;;23.53;13.43;;;;;;;6.86;100.00;94837.84;5054811;28;20937;-74
2023/03/03 07:41:24;;;;;;;9.43;7.93;;;;;;;6.74;100.00;94842.19;5054989;28;20453;-75
2023/03/03 07:43:53;;;;;;;6.93;6.23;;;;;;;6.59;100.00;94841.47;5055216;28;20453;-74
2023/03/03 07:46:30;;;;;;;11.30;8.10;;;;;;;6.78;100.00;94838.41;5054871;28;20525;-73
2023/03/03 07:48:59;;;;;;;14.90;9.00;;;;;;;6.78;100.00;94828.81;5054795;28;20438;-74
2023/03/03 07:51:28;;;;;;;15.50;10.17;;;;;;;6.99;100.00;94830.84;5055385;28;20450;-74
2023/03/03 07:54:12;;;;;;;11.73;9.17;;;;;;;7.08;100.00;94838.81;5054718;28;20447;-75
2023/03/03 07:56:39;;;;;;;11.50;8.50;;;;;;;6.98;100.00;94837.84;5054664;28;20458;-75
2023/03/03 07:59:19;;;;;;;13.50;10.10;;;;;;;6.66;100.00;94832.28;5054236;28;20507;-74
2023/03/03 08:01:52;;;;;;;14.90;10.07;;;;;;;6.68;100.00;94826.97;5054725;28;20485;-74
2023/03/03 08:04:22;;;;;;;11.00;9.70;;;;;;;6.54;100.00;94833.13;5054442;28;20504;-74
2023/03/03 08:06:50;;;;;;;12.97;8.47;;;;;;;6.46;100.00;94830.25;5055100;28;21033;-79
2023/03/03 08:09:39;;;;;;;15.63;11.00;;;;;;;6.47;100.00;94826.69;5054896;28;20446;-74
2023/03/03 08:12:32;;;;;;;13.60;9.00;;;;;;;6.56;100.00;94826.03;5012235;28;20988;-73
2023/03/03 08:15:21;;;;;;;16.57;11.00;;;;;;;6.37;100.00;94818.69;5012221;28;20869;-75
2023/03/03 08:17:51;;;;;;;14.70;10.10;;;;;;;6.39;100.00;94824.63;5011945;28;20479;-74
2023/03/03 08:20:52;;;;;;;15.03;9.67;;;;;;;6.39;100.00;94829.84;5012169;28;20455;-74
2023/03/03 08:23:20;;;;;;;19.57;12.10;;;;;;;6.42;100.00;94823.59;5011927;28;20853;-74
2023/03/03 08:25:48;;;;;;;23.40;14.20;;;;;;;6.36;100.00;94822.25;5012118;28;20506;-75
2023/03/03 08:28:15;;;;;;;20.73;12.47;;;;;;;6.36;100.00;94819.63;4963601;28;20530;-74
2023/03/03 08:30:44;;;;;;;27.00;18.23;;;;;;;6.25;100.00;94819.53;5012028;28;20934;-73
2023/03/03 08:33:12;;;;;;;23.53;13.33;;;;;;;6.25;100.00;94814.31;5011797;28;20460;-73
2023/03/03 08:35:39;;;;;;;20.20;11.73;;;;;;;6.25;100.00;94806.50;5011892;28;20459;-73
2023/03/03 08:38:07;;;;;;;21.83;14.80;;;;;;;6.28;100.00;94813.28;5011770;28;21017;-74
2023/03/03 08:40:34;;;;;;;14.53;11.17;;;;;;;6.25;100.00;94809.09;5012007;28;20455;-74
2023/03/03 08:43:01;;;;;;;18.03;12.17;;;;;;;6.17;100.00;94820.06;5011534;28;21010;-74
2023/03/03 08:45:28;;;;;;;17.33;11.27;;;;;;;6.27;100.00;94820.25;5011853;28;20882;-73
2023/03/03 08:47:56;;;;;;;17.13;11.77;;;;;;;6.31;100.00;94813.06;5011580;28;20455;-74
2023/03/03 08:50:24;;;;;;;19.37;13.47;;;;;;;6.28;100.00;94811.50;5053148;28;20452;-73
2023/03/03 08:52:51;;;;;;;30.90;13.20;;;;;;;6.18;100.00;94820.91;5053820;28;20448;-73
2023/03/03 08:55:18;;;;;;;19.47;12.40;;;;;;;6.23;100.00;94816.19;5034805;28;20445;-73
2023/03/03 08:57:45;;;;;;;17.67;11.40;;;;;;;6.15;100.00;94816.72;5053709;28;20994;-74
2023/03/03 09:00:15;;;;;;;16.40;11.87;;;;;;;6.21;100.00;94810.25;5053467;28;20449;-73
2023/03/03 09:02:42;;;;;;;18.03;11.50;;;;;;;6.17;100.00;94819.22;5053527;28;20452;-74
2023/03/03 09:05:10;;;;;;;16.63;10.67;;;;;;;6.21;100.00;94818.91;5034476;28;20949;-72
2023/03/03 09:07:39;;;;;;;17.23;10.10;;;;;;;6.30;100.00;94817.44;5053649;28;20532;-72
2023/03/03 09:10:07;;;;;;;17.30;11.30;;;;;;;6.29;100.00;94822.75;5053370;28;20857;-73
2023/03/03 09:12:37;;;;;;;18.10;10.60;;;;;;;6.21;100.00;94821.50;5053256;28;20452;-74
2023/03/03 09:15:15;;;;;;;16.90;11.60;;;;;;;6.43;100.00;94814.81;5053158;28;20446;-74
2023/03/03 09:17:42;;;;;;;12.63;10.30;;;;;;;6.37;100.00;94815.25;5053205;28;20541;-73
2023/03/03 09:20:33;;;;;;;14.50;11.33;;;;;;;6.53;100.00;94814.06;5053219;28;20446;-74
2023/03/03 09:23:24;;;;;;;12.90;9.60;;;;;;;6.49;100.00;94814.38;5053211;28;20481;-73
2023/03/03 09:25:52;;;;;;;18.03;11.50;;;;;;;6.69;100.00;94816.44;5052605;28;20577;-73
2023/03/03 09:28:24;;;;;;;17.60;10.93;;;;;;;6.81;100.00;94807.72;5053117;28;20461;-74
2023/03/03 09:30:52;;;;;;;16.20;10.00;;;;;;;6.88;100.00;94809.88;5053231;28;20438;-74
2023/03/03 09:33:32;;;;;;;14.17;10.03;;;;;;;6.92;100.00;94817.38;5052553;28;20513;-73
2023/03/03 09:36:12;;;;;;;23.03;11.27;;;;;;;6.99;100.00;94821.25;5052857;28;20454;-73
2023/03/03 09:38:44;;;;;;;13.63;10.23;;;;;;;7.15;100.00;94819.16;5052621;28;20948;-74
2023/03/03 09:41:44;;;;;;;12.00;8.43;;;;;;;7.27;100.00;94817.47;5053254;28;20796;-77
2023/03/03 09:44:28;;;;;;;10.87;9.60;;;;;;;7.42;100.00;94816.31;5010799;28;20447;-73
2023/03/03 09:47:15;;;;;;;13.70;10.17;;;;;;;7.47;100.00;94811.59;5010485;28;20481;-73
2023/03/03 09:49:56;;;;;;;12.90;10.10;;;;;;;7.55;100.00;94816.28;5010592;28;20506;-73
2023/03/03 09:52:33;;;;;;;10.00;8.17;;;;;;;7.54;100.00;94819.00;5010658;28;20530;-73
2023/03/03 09:55:17;;;;;;;10.23;7.93;;;;;;;7.64;99.63;94820.81;5010028;28;20936;-74
2023/03/03 09:58:01;;;;;;;12.83;8.90;;;;;;;7.67;99.94;94819.75;5010321;28;20505;-73
2023/03/03 10:00:40;;;;;;;10.37;8.23;;;;;;;7.77;99.69;94816.31;5010064;28;20456;-74
2023/03/03 10:03:39;;;;;;;11.87;9.17;;;;;;;7.86;98.18;94814.81;5010406;28;20444;-73
2023/03/03 10:06:16;;;;;;;13.27;8.77;;;;;;;8.00;97.62;94816.38;5010227;28;20968;-74
2023/03/03 10:09:01;;;;;;;21.43;13.07;;;;;;;8.08;97.40;94812.22;5010318;28;20445;-73
2023/03/03 10:11:35;;;;;;;13.50;9.63;;;;;;;8.11;97.19;94807.72;5010396;28;20878;-74
2023/03/03 10:14:25;;;;;;;11.77;9.37;;;;;;;8.18;97.76;94814.16;5010251;28;20448;-74
2023/03/03 10:17:06;;;;;;;14.60;10.20;;;;;;;8.24;97.72;94805.81;5010363;28;20503;-73
2023/03/03 10:19:40;;;;;;;12.20;9.50;;;;;;;8.32;97.61;94801.66;5010384;28;20451;-74
2023/03/03 10:22:19;;;;;;;13.37;9.50;;;;;;;8.39;98.05;94802.06;5012325;28;20442;-73
2023/03/03 10:25:00;;;;;;;13.03;9.53;;;;;;;8.41;97.58;94802.78;5051985;28;20447;-73
2023/03/03 10:27:44;;;;;;;17.37;13.63;;;;;;;8.48;96.23;94801.34;5051671;28;20551;-73
2023/03/03 10:30:21;;;;;;;15.57;10.57;;;;;;;8.52;96.20;94794.91;5052192;28;20447;-73
2023/03/03 10:32:55;;;;;;;14.70;11.50;;;;;;;8.47;95.23;94798.84;5052069;28;20478;-73
2023/03/03 10:35:31;;;;;;;16.43;10.63;;;;;;;8.34;95.10;94791.94;5052025;28;20470;-74
2023/03/03 10:38:13;;;;;;;13.43;10.50;;;;;;;8.15;97.41;94793.47;5051997;28;20497;-74
2023/03/03 10:40:49;;;;;;;14.90;11.33;;;;;;;8.07;98.92;94787.03;5034402;28;20534;-73
2023/03/03 10:43:33;;;;;;;14.50;10.40;;;;;;;8.11;99.52;94787.66;5052218;28;20458;-73
2023/03/03 10:46:17;;;;;;;12.20;10.40;;;;;;;8.07;98.97;94787.03;5052049;28;20487;-74
2023/03/03 10:49:05;;;;;;;15.23;10.13;;;;;;;8.03;98.25;94783.00;5052242;28;20448;-73
2023/03/03 10:51:42;;;;;;;13.80;10.00;;;;;;;7.99;97.72;94773.72;5052045;28;20466;-73
2023/03/03 10:54:24;;;;;;;11.33;9.63;;;;;;;8.12;100.00;94780.66;5052254;28;20454;-75
2023/03/03 10:56:56;;;;;;;14.90;11.03;;;;;;;8.78;100.00;94777.19;5051982;28;20915;-74
2023/03/03 10:59:39;;;;;;;14.50;10.83;;;;;;;8.81;98.04;94781.34;5051801;28;20452;-74
2023/03/03 11:02:15;;;;;;;13.67;11.30;;;;;;;8.83;96.46;94777.63;5052104;28;20967;-73
2023/03/03 11:05:06;;;;;;;16.13;11.00;;;;;;;8.61;94.01;94775.88;5051983;28;20445;-74
2023/03/03 11:07:39;;;;;;;12.73;10.00;;;;;;;8.50;94.04;94778.53;5009847;28;20486;-74
2023/03/03 11:10:21;;;;;;;14.80;10.93;;;;;;;8.38;94.55;94779.47;5009839;28;20583;-74
2023/03/03 11:13:02;;;;;;;13.93;11.10;;;;;;;8.29;95.75;94780.16;5012997;28;20509;-74
2023/03/03 11:15:46;;;;;;;14.20;11.03;;;;;;;8.21;95.58;94767.69;5013597;28;20452;-76
2023/03/03 11:18:25;;;;;;;17.57;12.63;;;;;;;8.10;96.11;94759.03;5013428;28;21255;-73
2023/03/03 11:20:58;;;;;;;26.20;16.00;;;;;;;8.02;97.92;94749.97;4980663;28;20433;-74
2023/03/03 11:24:10;;;;;;;17.63;14.93;;;;;;;7.94;97.99;94749.75;4980650;28;20435;-73
2023/03/03 11:26:59;;;;;;;24.00;15.87;;;;;;;7.95;99.05;94751.41;5012638;28;20479;-73
2023/03/03 11:29:51;;;;;;;24.77;16.93;;;;;;;7.97;99.17;94751.28;4985351;28;20447;-73
2023/03/03 11:32:31;;;;;;;32.33;20.67;;;;;;;7.98;99.59;94756.38;5013114;28;20896;-74
2023/03/03 11:35:09;;;;;;;24.70;14.80;;;;;;;7.95;99.61;94750.56;5012917;28;20469;-73
2023/03/03 11:37:43;;;;;;;29.00;18.47;;;;;;;8.02;100.00;94751.75;5013185;28;20791;-73
2023/03/03 11:40:16;;;;;;;19.90;14.73;;;;;;;8.16;100.00;94748.09;5013179;28;20445;-73
2023/03/03 11:42:54;;;;;;;26.30;18.03;;;;;;;8.09;100.00;94742.47;4980238;28;20478;-74